Time;durP1;ratioP1;P1;durP2;ratioP2;P2;SDS_P1;SDS_P2;PMS_P1;PMS_P2;Temp;Humidity;BMP_temperature;BMP_pressure;BME280_temperature;BME280_humidity;BME280_pressure;Samples;Min_cycle;Max_cycle;Signal;HPM_P1;HPM_P2
2022/05/06 00:00:25;;;;;;;21.15;10.45;;;14.10;69.80;;;;;;5030779;28;20040;-79
2022/05/06 00:02:51;;;;;;;21.15;11.73;;;14.10;69.80;;;;;;5046331;28;20025;-79
2022/05/06 00:05:17;;;;;;;25.92;12.73;;;14.00;69.60;;;;;;5036051;28;20021;-79
2022/05/06 00:07:43;;;;;;;18.38;10.75;;;14.00;69.80;;;;;;5020859;28;20033;-80
2022/05/06 00:10:10;;;;;;;23.13;11.32;;;13.90;69.70;;;;;;5016497;28;20030;-80
2022/05/06 00:12:36;;;;;;;26.48;12.57;;;13.90;69.80;;;;;;5016989;28;20025;-80
2022/05/06 00:15:01;;;;;;;27.13;12.20;;;13.80;70.20;;;;;;5031807;28;20092;-80
2022/05/06 00:17:27;;;;;;;28.23;13.07;;;13.80;70.00;;;;;;5034279;28;20029;-79
2022/05/06 00:19:53;;;;;;;25.77;13.15;;;13.80;70.10;;;;;;5021836;28;20037;-80
2022/05/06 00:22:19;;;;;;;26.08;12.68;;;13.70;70.30;;;;;;5016215;28;20033;-80
2022/05/06 00:24:44;;;;;;;23.30;12.10;;;13.70;70.20;;;;;;5016540;28;20029;-80
2022/05/06 00:27:10;;;;;;;21.60;11.57;;;13.70;70.50;;;;;;5014501;28;20037;-79
2022/05/06 00:29:35;;;;;;;27.92;12.77;;;13.70;70.40;;;;;;5016464;28;20083;-79
2022/05/06 00:32:02;;;;;;;22.23;11.40;;;13.60;70.90;;;;;;5014508;28;20520;-79
2022/05/06 00:34:28;;;;;;;27.15;12.43;;;13.60;70.60;;;;;;5016163;28;20038;-80
2022/05/06 00:36:55;;;;;;;19.90;10.90;;;13.50;70.90;;;;;;5015640;28;20085;-79
2022/05/06 00:39:21;;;;;;;24.73;11.00;;;13.50;70.70;;;;;;5016267;28;20045;-79
2022/05/06 00:41:47;;;;;;;23.40;11.23;;;13.50;70.70;;;;;;5016321;28;20038;-79
2022/05/06 00:44:13;;;;;;;23.35;10.80;;;13.50;70.90;;;;;;5014060;28;20041;-79
2022/05/06 00:46:39;;;;;;;19.65;10.52;;;13.40;70.80;;;;;;5016120;28;20029;-79
2022/05/06 00:49:10;;;;;;;18.90;9.52;;;13.40;71.10;;;;;;5015669;28;20412;-79
2022/05/06 00:51:36;;;;;;;;;;;13.30;71.00;;;;;;5021786;28;20490;-78
2022/05/06 00:54:02;;;;;;;21.90;10.43;;;13.20;71.30;;;;;;5035502;28;19911;-79
2022/05/06 00:56:28;;;;;;;18.02;10.13;;;13.30;70.80;;;;;;5031989;28;20563;-80
2022/05/06 00:58:54;;;;;;;20.02;10.45;;;13.20;71.70;;;;;;5034316;28;20392;-78
2022/05/06 01:01:20;;;;;;;20.15;10.15;;;13.20;71.60;;;;;;5024420;28;20079;-80
2022/05/06 01:03:45;;;;;;;18.98;9.70;;;13.20;71.10;;;;;;5023407;28;20060;-80
2022/05/06 01:06:13;;;;;;;20.77;10.45;;;13.30;71.10;;;;;;5034198;28;20395;-80
2022/05/06 01:08:43;;;;;;;19.70;9.98;;;13.30;71.10;;;;;;5035465;28;20029;-80
2022/05/06 01:11:13;;;;;;;19.55;10.25;;;13.20;70.80;;;;;;5033069;28;20028;-80
2022/05/06 01:13:44;;;;;;;24.27;11.25;;;13.20;71.10;;;;;;5033516;28;20053;-80
2022/05/06 01:16:14;;;;;;;27.52;12.68;;;13.20;71.00;;;;;;5034805;28;20601;-80
2022/05/06 01:18:40;;;;;;;27.30;12.90;;;13.20;71.00;;;;;;5023386;28;20045;-80
2022/05/06 01:21:07;;;;;;;20.35;10.85;;;13.20;70.90;;;;;;5015683;28;20084;-80
2022/05/06 01:23:34;;;;;;;24.27;12.30;;;13.30;70.40;;;;;;5014099;28;20655;-79
2022/05/06 01:25:59;;;;;;;23.90;12.65;;;13.30;70.70;;;;;;5031543;28;20506;-79
2022/05/06 01:28:27;;;;;;;23.20;11.57;;;13.20;71.00;;;;;;5033914;28;20057;-79
2022/05/06 01:31:00;;;;;;;24.08;11.20;;;13.20;71.00;;;;;;5033629;28;20025;-79
2022/05/06 01:33:28;;;;;;;23.02;12.00;;;13.20;71.10;;;;;;5051228;28;20026;-79
2022/05/06 01:36:03;;;;;;;22.90;12.00;;;13.20;71.40;;;;;;5019391;28;20049;-79
2022/05/06 01:38:46;;;;;;;22.67;11.55;;;13.10;71.40;;;;;;5018162;28;20503;-79
2022/05/06 01:41:33;;;;;;;20.38;11.43;;;13.10;71.20;;;;;;5019195;28;20052;-79
2022/05/06 01:44:04;;;;;;;18.63;11.18;;;13.00;71.70;;;;;;5019022;28;20034;-79
2022/05/06 01:46:30;;;;;;;18.58;10.50;;;13.10;71.20;;;;;;5018776;28;20025;-79
2022/05/06 01:48:59;;;;;;;20.58;11.48;;;13.00;71.40;;;;;;5019044;28;20396;-79
2022/05/06 01:51:27;;;;;;;20.17;11.15;;;13.00;71.70;;;;;;5022660;28;20029;-80
2022/05/06 01:53:53;;;;;;;20.98;11.20;;;12.90;71.50;;;;;;5037318;28;20033;-80
2022/05/06 01:56:19;;;;;;;26.08;11.85;;;12.90;71.50;;;;;;5033988;28;20030;-79
2022/05/06 01:58:46;;;;;;;22.75;10.93;;;12.90;71.90;;;;;;5018912;28;20041;-79
2022/05/06 02:01:12;;;;;;;25.92;12.27;;;12.90;71.50;;;;;;5023398;28;20136;-79
2022/05/06 02:06:22;;;;;;;22.15;10.77;;;13.00;71.70;;;;;;5037559;28;20411;-79
2022/05/06 02:08:48;;;;;;;15.90;9.38;;;13.00;72.10;;;;;;5036545;28;20124;-78
2022/05/06 02:11:16;;;;;;;22.45;11.18;;;12.90;72.40;;;;;;5038424;28;20014;-79
2022/05/06 02:13:42;;;;;;;23.85;11.35;;;12.90;72.50;;;;;;5021813;28;20471;-79
2022/05/06 02:16:08;;;;;;;20.65;11.60;;;13.00;72.50;;;;;;5018563;28;20022;-79
2022/05/06 02:18:34;;;;;;;19.75;10.65;;;13.10;72.20;;;;;;5033744;28;20090;-79
2022/05/06 02:21:00;;;;;;;26.08;11.80;;;13.10;72.10;;;;;;5035709;28;20025;-79
2022/05/06 02:23:26;;;;;;;22.67;10.70;;;13.20;72.20;;;;;;5038152;28;20035;-79
2022/05/06 02:25:53;;;;;;;22.35;11.70;;;13.20;72.20;;;;;;5038288;28;20021;-79
2022/05/06 02:28:19;;;;;;;20.52;10.48;;;13.20;72.70;;;;;;5037602;28;20032;-78
2022/05/06 02:33:30;;;;;;;20.42;10.73;;;13.20;72.90;;;;;;5018244;28;20036;-79
2022/05/06 02:35:57;;;;;;;22.85;10.68;;;13.20;72.90;;;;;;5017886;28;20018;-79
2022/05/06 02:38:23;;;;;;;22.88;10.95;;;13.20;73.30;;;;;;5018420;28;20028;-79
2022/05/06 02:40:49;;;;;;;25.92;12.07;;;13.20;72.90;;;;;;5049985;28;20021;-79
2022/05/06 02:43:17;;;;;;;19.15;10.30;;;13.20;72.90;;;;;;5028364;28;20091;-79
2022/05/06 02:45:43;;;;;;;21.30;10.73;;;13.20;73.00;;;;;;5016921;28;20080;-78
2022/05/06 02:48:10;;;;;;;21.50;10.93;;;13.20;72.80;;;;;;5017099;28;20037;-79
2022/05/06 02:50:36;;;;;;;21.15;12.10;;;13.30;73.10;;;;;;5018092;28;20022;-79
2022/05/06 02:53:02;;;;;;;21.13;10.90;;;13.20;73.20;;;;;;5035214;28;20547;-79
2022/05/06 02:55:28;;;;;;;25.75;11.18;;;13.30;72.90;;;;;;5031139;28;20026;-79
2022/05/06 02:57:54;;;;;;;24.85;11.80;;;13.20;73.70;;;;;;5016503;28;20037;-80
2022/05/06 03:00:20;;;;;;;19.70;11.25;;;13.20;73.00;;;;;;5017674;28;20030;-79
2022/05/06 03:02:46;;;;;;;24.70;12.50;;;13.30;73.50;;;;;;5016682;28;20034;-79
2022/05/06 03:05:13;;;;;;;20.23;9.57;;;13.30;73.10;;;;;;5037152;28;20053;-79
2022/05/06 03:07:39;;;;;;;19.73;10.45;;;13.30;73.10;;;;;;5036904;28;20479;-79
2022/05/06 03:10:05;;;;;;;21.30;10.90;;;13.30;73.10;;;;;;5037433;28;20029;-79
2022/05/06 03:12:31;;;;;;;21.50;9.77;;;13.30;72.80;;;;;;5022909;28;20030;-79
2022/05/06 03:15:03;;;;;;;21.13;10.00;;;13.30;73.70;;;;;;5017285;28;20574;-79
2022/05/06 03:17:33;;;;;;;21.63;10.55;;;13.20;73.70;;;;;;5017420;28;20034;-79
2022/05/06 03:20:02;;;;;;;22.50;10.43;;;13.30;73.70;;;;;;5017218;28;20088;-79
2022/05/06 03:22:28;;;;;;;22.85;10.60;;;13.20;73.80;;;;;;5017336;28;20046;-79
2022/05/06 03:24:54;;;;;;;20.23;9.80;;;13.20;74.20;;;;;;5015751;28;20057;-79
2022/05/06 03:30:05;;;;;;;21.98;9.82;;;13.20;74.40;;;;;;5037183;28;20032;-80
2022/05/06 03:32:33;;;;;;;21.95;10.10;;;13.20;74.40;;;;;;5037089;28;20035;-80
2022/05/06 03:34:59;;;;;;;22.92;12.73;;;13.20;74.70;;;;;;5037090;28;20097;-79
2022/05/06 03:37:26;;;;;;;21.83;10.07;;;13.20;74.90;;;;;;5020774;28;20061;-79
2022/05/06 03:39:51;;;;;;;22.63;9.65;;;13.30;74.60;;;;;;5017084;28;20026;-79
2022/05/06 03:42:20;;;;;;;18.85;9.38;;;13.30;74.40;;;;;;5015576;28;20037;-79
2022/05/06 03:44:45;;;;;;;18.75;9.20;;;13.30;74.40;;;;;;5016300;28;20029;-80
2022/05/06 03:47:11;;;;;;;21.13;10.18;;;13.30;74.20;;;;;;5015587;28;20034;-79
2022/05/06 03:49:36;;;;;;;25.02;10.75;;;13.30;74.50;;;;;;5016523;28;20101;-79
2022/05/06 03:52:03;;;;;;;23.63;10.88;;;13.30;74.70;;;;;;5024725;28;20037;-80
2022/05/06 03:54:29;;;;;;;24.20;11.30;;;13.30;74.90;;;;;;5034124;28;20026;-80
2022/05/06 03:56:55;;;;;;;18.23;8.75;;;13.30;75.10;;;;;;5016583;28;20026;-79
2022/05/06 03:59:20;;;;;;;20.55;9.05;;;13.30;75.00;;;;;;5016154;28;20034;-79
2022/05/06 04:01:46;;;;;;;17.52;8.75;;;13.40;75.10;;;;;;5016518;28;20108;-79
2022/05/06 04:04:12;;;;;;;28.75;11.40;;;13.30;75.20;;;;;;5025565;28;20033;-79
2022/05/06 04:06:37;;;;;;;21.25;9.20;;;13.40;75.60;;;;;;5016887;28;20109;-79
2022/05/06 04:09:03;;;;;;;26.60;11.50;;;13.40;75.30;;;;;;5016455;28;20040;-79
2022/05/06 04:11:29;;;;;;;21.25;9.48;;;13.40;75.70;;;;;;5015129;28;20018;-79
2022/05/06 04:13:55;;;;;;;22.58;10.90;;;13.30;75.70;;;;;;5016043;28;20080;-80
2022/05/06 04:16:22;;;;;;;25.80;12.20;;;13.40;75.50;;;;;;5036661;28;20021;-80
2022/05/06 04:18:48;;;;;;;25.73;10.68;;;13.40;75.40;;;;;;5041458;28;20165;-79
2022/05/06 04:23:58;;;;;;;25.52;12.65;;;13.50;74.70;;;;;;5051083;28;20051;-78
2022/05/06 04:26:23;;;;;;;25.30;10.93;;;13.50;74.60;;;;;;5022512;28;20017;-77
2022/05/06 04:28:49;;;;;;;23.10;10.23;;;13.50;75.30;;;;;;5021919;28;20038;-78
2022/05/06 04:31:17;;;;;;;22.13;10.25;;;13.40;75.40;;;;;;5042266;28;20029;-79
2022/05/06 04:33:43;;;;;;;20.08;10.35;;;13.40;75.70;;;;;;5014683;28;20028;-78
2022/05/06 04:36:09;;;;;;;24.52;10.20;;;13.40;75.70;;;;;;5014722;28;20025;-79
2022/05/06 04:38:35;;;;;;;19.67;8.95;;;13.30;75.90;;;;;;5013864;28;20037;-78
2022/05/06 04:41:02;;;;;;;20.92;10.45;;;13.40;75.80;;;;;;5015920;28;20022;-79
2022/05/06 04:43:28;;;;;;;22.45;9.93;;;13.40;75.70;;;;;;5030921;28;20030;-79
2022/05/06 04:45:55;;;;;;;21.23;9.00;;;13.50;75.20;;;;;;5025420;28;20036;-80
2022/05/06 04:48:21;;;;;;;20.05;9.40;;;13.40;76.00;;;;;;5035476;28;20032;-82
2022/05/06 04:54:13;;;;;;;22.35;10.85;;;13.30;76.30;;;;;;5072602;28;20508;-73
2022/05/06 04:56:41;;;;;;;20.98;10.35;;;13.20;75.90;;;;;;5071831;28;20473;-74
2022/05/06 04:59:07;;;;;;;20.02;9.15;;;13.20;76.40;;;;;;5067457;28;20484;-75
2022/05/06 05:01:33;;;;;;;23.65;10.02;;;13.30;76.90;;;;;;5052358;28;20059;-75
2022/05/06 05:03:59;;;;;;;18.77;9.20;;;13.20;77.30;;;;;;5059435;28;20111;-75
2022/05/06 05:06:25;;;;;;;18.42;9.43;;;13.30;76.50;;;;;;5072133;28;20104;-75
2022/05/06 05:08:51;;;;;;;17.52;8.52;;;13.40;76.60;;;;;;5072068;28;20063;-76
2022/05/06 05:11:16;;;;;;;17.75;8.82;;;13.40;76.50;;;;;;5070967;28;20033;-76
2022/05/06 05:13:43;;;;;;;17.75;8.77;;;13.40;76.40;;;;;;5071432;28;20115;-77
2022/05/06 05:16:08;;;;;;;18.23;8.77;;;13.50;76.20;;;;;;5065481;28;20036;-76
2022/05/06 05:18:34;;;;;;;18.75;8.65;;;13.50;76.10;;;;;;5062198;28;20406;-78
2022/05/06 05:21:01;;;;;;;18.33;8.38;;;13.50;75.90;;;;;;5066297;28;20025;-75
2022/05/06 05:23:26;;;;;;;19.17;8.85;;;13.60;75.80;;;;;;5071494;28;20039;-75
2022/05/06 05:25:52;;;;;;;15.70;8.07;;;13.60;75.60;;;;;;5070372;28;20025;-75
2022/05/06 05:28:17;;;;;;;15.82;7.07;;;13.60;75.80;;;;;;5068260;28;20044;-76
2022/05/06 05:30:46;;;;;;;18.30;7.63;;;13.70;75.40;;;;;;5066099;28;20497;-74
2022/05/06 05:33:12;;;;;;;16.38;8.38;;;13.70;75.70;;;;;;5064937;28;20064;-75
2022/05/06 05:35:38;;;;;;;14.85;6.90;;;13.70;75.30;;;;;;5050987;28;20501;-75
2022/05/06 05:38:04;;;;;;;13.80;7.88;;;13.70;75.40;;;;;;5063003;28;20025;-75
2022/05/06 05:40:30;;;;;;;13.25;6.70;;;13.80;75.30;;;;;;5051526;28;20055;-75
2022/05/06 05:42:55;;;;;;;16.33;8.07;;;13.80;75.40;;;;;;5051163;28;20033;-75
2022/05/06 05:50:35;;;;;;;15.82;6.88;;;13.80;75.60;;;;;;5058048;28;20033;-75
2022/05/06 05:53:02;;;;;;;14.77;7.15;;;13.80;76.10;;;;;;5070578;28;20052;-75
2022/05/06 05:55:27;;;;;;;12.88;7.47;;;13.80;75.60;;;;;;5069975;28;20025;-75
2022/05/06 05:57:53;;;;;;;13.52;7.53;;;13.90;75.80;;;;;;5070030;28;20461;-75
2022/05/06 06:00:19;;;;;;;15.30;7.22;;;13.90;75.30;;;;;;5069781;28;20024;-75
2022/05/06 06:02:44;;;;;;;16.35;7.30;;;14.00;75.30;;;;;;5051635;28;20037;-75
2022/05/06 06:05:10;;;;;;;18.02;7.78;;;14.00;75.00;;;;;;5059464;28;20461;-76
2022/05/06 06:07:36;;;;;;;13.93;7.57;;;14.00;75.10;;;;;;5042022;28;20041;-75
2022/05/06 06:10:01;;;;;;;12.90;6.80;;;14.10;75.50;;;;;;5039127;28;20025;-75
2022/05/06 06:12:27;;;;;;;13.82;7.70;;;14.10;75.00;;;;;;5057742;28;20033;-75
2022/05/06 06:14:55;;;;;;;15.93;7.68;;;14.10;75.10;;;;;;5057464;28;20127;-75
2022/05/06 06:17:22;;;;;;;19.13;8.32;;;14.10;75.10;;;;;;5056360;28;20021;-75
2022/05/06 06:19:48;;;;;;;16.25;7.57;;;14.20;75.20;;;;;;5055695;28;20036;-75
2022/05/06 06:22:13;;;;;;;19.02;8.60;;;14.20;75.50;;;;;;5057639;28;20449;-75
2022/05/06 06:24:39;;;;;;;16.45;8.18;;;14.20;75.50;;;;;;5045678;28;20029;-75
2022/05/06 06:27:05;;;;;;;17.27;8.68;;;14.20;75.70;;;;;;5037290;28;20026;-75
2022/05/06 06:29:35;;;;;;;15.43;7.85;;;14.20;75.60;;;;;;5037373;28;20025;-75
2022/05/06 06:32:01;;;;;;;18.35;8.57;;;14.10;75.90;;;;;;5040101;28;20063;-76
2022/05/06 06:34:26;;;;;;;17.42;8.60;;;14.10;75.90;;;;;;5057226;28;20047;-74
2022/05/06 06:36:52;;;;;;;16.17;7.43;;;14.20;75.70;;;;;;5045908;28;20026;-75
2022/05/06 06:39:17;;;;;;;17.33;7.60;;;14.20;75.70;;;;;;5037520;28;20048;-74
2022/05/06 06:41:43;;;;;;;16.52;7.07;;;14.20;75.30;;;;;;5037273;28;20427;-74
2022/05/06 06:44:08;;;;;;;15.15;7.78;;;14.30;75.70;;;;;;5036357;28;20043;-76
2022/05/06 06:46:34;;;;;;;17.00;8.05;;;14.30;75.40;;;;;;5037176;28;20025;-77
2022/05/06 06:49:00;;;;;;;14.60;7.47;;;14.30;75.70;;;;;;5037222;28;20029;-76
2022/05/06 06:51:26;;;;;;;19.95;7.65;;;14.30;75.80;;;;;;5041506;28;20028;-77
2022/05/06 06:53:55;;;;;;;18.48;8.40;;;14.30;75.80;;;;;;5042047;28;20559;-74
2022/05/06 06:56:24;;;;;;;19.83;9.45;;;14.40;75.30;;;;;;5037172;28;20021;-75
2022/05/06 06:58:50;;;;;;;16.42;8.50;;;14.50;75.60;;;;;;5035510;28;20056;-75
2022/05/06 07:01:15;;;;;;;18.60;8.60;;;14.50;75.50;;;;;;5036593;28;20051;-75
2022/05/06 07:03:41;;;;;;;19.13;8.75;;;14.60;75.40;;;;;;5042230;28;20173;-75
2022/05/06 07:11:53;;;;;;;18.73;8.52;;;14.70;75.20;;;;;;5046156;28;20063;-75
2022/05/06 07:14:21;;;;;;;18.45;8.95;;;14.80;75.20;;;;;;5056478;28;20518;-75
2022/05/06 07:16:48;;;;;;;17.48;8.60;;;14.80;75.10;;;;;;5038573;28;20033;-75
2022/05/06 07:19:14;;;;;;;14.18;7.53;;;14.80;75.10;;;;;;5035974;28;20028;-74
2022/05/06 07:21:39;;;;;;;89.53;69.72;;;14.80;75.60;;;;;;5036492;28;20384;-76
2022/05/06 07:24:06;;;;;;;17.67;8.98;;;14.80;75.30;;;;;;5036127;28;20030;-75
2022/05/06 07:26:31;;;;;;;16.40;9.45;;;14.80;75.60;;;;;;5036383;28;20021;-75
2022/05/06 07:28:57;;;;;;;16.33;8.23;;;14.80;75.40;;;;;;5035233;28;20032;-76
2022/05/06 07:31:23;;;;;;;15.82;8.00;;;14.90;75.50;;;;;;5035065;28;20060;-75
2022/05/06 07:33:49;;;;;;;15.45;8.43;;;14.80;75.70;;;;;;5036304;28;20029;-74
2022/05/06 07:36:15;;;;;;;19.42;10.20;;;14.80;75.90;;;;;;5036149;28;20109;-75
2022/05/06 07:38:41;;;;;;;16.38;8.30;;;14.80;76.00;;;;;;5077667;28;20048;-75
2022/05/06 07:41:07;;;;;;;18.20;8.63;;;15.00;75.50;;;;;;5055974;28;20143;-75
2022/05/06 07:43:34;;;;;;;15.82;8.45;;;15.00;75.20;;;;;;5054583;28;20025;-75
2022/05/06 07:46:00;;;;;;;19.00;8.80;;;15.10;75.40;;;;;;5036346;28;20034;-75
2022/05/06 07:48:26;;;;;;;17.48;7.90;;;15.20;75.10;;;;;;5034706;28;20055;-75
2022/05/06 07:50:51;;;;;;;22.33;9.07;;;15.20;75.00;;;;;;5067858;28;20385;-75
2022/05/06 07:53:17;;;;;;;21.17;8.55;;;15.30;74.60;;;;;;5055479;28;20537;-75
2022/05/06 07:55:43;;;;;;;18.65;9.43;;;15.30;74.90;;;;;;5052910;28;20036;-75
2022/05/06 07:58:10;;;;;;;21.23;9.95;;;15.40;74.50;;;;;;5054974;28;20021;-75
2022/05/06 08:00:36;;;;;;;17.77;8.18;;;15.50;74.40;;;;;;5046997;28;20026;-75
2022/05/06 08:05:47;;;;;;;17.60;8.60;;;15.50;74.70;;;;;;5055854;28;20087;-76
2022/05/06 08:08:14;;;;;;;17.33;9.20;;;15.50;74.50;;;;;;5055634;28;20021;-75
2022/05/06 08:10:40;;;;;;;22.80;9.07;;;15.50;74.20;;;;;;5038556;28;20037;-76
2022/05/06 08:13:06;;;;;;;19.90;9.02;;;15.70;74.00;;;;;;5049097;28;20033;-76
2022/05/06 08:15:32;;;;;;;17.80;8.95;;;15.70;74.20;;;;;;5034904;28;20032;-76
2022/05/06 08:17:58;;;;;;;20.50;8.57;;;15.60;74.50;;;;;;5035590;28;20483;-74
2022/05/06 08:20:23;;;;;;;17.80;9.45;;;15.70;74.50;;;;;;5035428;28;20060;-75
2022/05/06 08:22:49;;;;;;;16.60;8.25;;;15.70;74.60;;;;;;5039879;28;20124;-75
2022/05/06 08:25:15;;;;;;;25.30;9.77;;;15.80;74.50;;;;;;5053810;28;20028;-75
2022/05/06 08:27:42;;;;;;;15.63;7.45;;;15.90;74.20;;;;;;5046750;28;20022;-75
2022/05/06 08:30:10;;;;;;;16.17;8.50;;;16.00;73.90;;;;;;5034098;28;20395;-74
2022/05/06 08:32:36;;;;;;;18.92;9.93;;;16.10;73.80;;;;;;5034625;28;20045;-75
2022/05/06 08:35:03;;;;;;;15.50;8.30;;;16.20;73.10;;;;;;5034952;28;20022;-74
2022/05/06 08:37:29;;;;;;;22.67;9.63;;;16.30;72.90;;;;;;5035346;28;20022;-74
2022/05/06 08:39:54;;;;;;;17.60;8.43;;;16.40;72.70;;;;;;5046056;28;20043;-75
2022/05/06 08:42:22;;;;;;;18.02;8.75;;;16.40;73.00;;;;;;5053699;28;20032;-75
2022/05/06 08:53:05;;;;;;;16.33;8.60;;;16.70;72.30;;;;;;5052654;28;20080;-76
2022/05/06 08:55:34;;;;;;;21.73;8.55;;;16.90;71.80;;;;;;5053673;28;20438;-76
2022/05/06 08:58:00;;;;;;;14.32;8.55;;;17.20;71.50;;;;;;5054890;28;20103;-76
2022/05/06 09:00:28;;;;;;;17.60;8.32;;;17.40;70.60;;;;;;5049081;28;20041;-76
2022/05/06 09:02:54;;;;;;;17.63;8.10;;;17.70;70.20;;;;;;5035749;28;20037;-76
2022/05/06 09:05:20;;;;;;;13.63;7.90;;;17.90;69.40;;;;;;5054815;28;20083;-77
2022/05/06 09:08:00;;;;;;;16.52;8.35;;;18.00;68.70;;;;;;5034845;28;20025;-77
2022/05/06 09:10:26;;;;;;;11.18;6.72;;;18.80;67.20;;;;;;5034676;28;20030;-76
2022/05/06 09:12:57;;;;;;;16.92;8.52;;;19.00;66.10;;;;;;5054446;28;20617;-77
2022/05/06 09:18:08;;;;;;;16.92;7.70;;;19.20;65.10;;;;;;5035044;28;20028;-76
2022/05/06 09:20:35;;;;;;;11.15;5.95;;;19.40;64.20;;;;;;5034887;28;20160;-76
2022/05/06 09:23:24;;;;;;;12.57;7.38;;;20.00;62.20;;;;;;5034754;28;20033;-76
2022/05/06 09:25:52;;;;;;;15.15;7.40;;;20.00;61.60;;;;;;5034774;28;20029;-77
2022/05/06 09:28:26;;;;;;;16.92;7.82;;;20.00;61.50;;;;;;5034034;28;20831;-77
2022/05/06 09:31:09;;;;;;;16.52;7.78;;;19.70;62.20;;;;;;5033435;28;20087;-77
2022/05/06 09:33:37;;;;;;;13.60;6.78;;;19.80;62.40;;;;;;5033266;28;20029;-76
2022/05/06 09:36:29;;;;;;;11.43;6.28;;;19.80;62.60;;;;;;5034340;28;20064;-77
2022/05/06 09:39:10;;;;;;;13.60;8.05;;;21.00;60.30;;;;;;5035043;28;20067;-76
2022/05/06 09:41:40;;;;;;;11.90;7.22;;;22.60;56.10;;;;;;5038437;28;20036;-77
2022/05/06 09:44:10;;;;;;;12.95;6.60;;;23.20;53.60;;;;;;5038408;28;20018;-74
2022/05/06 09:46:36;;;;;;;12.45;6.78;;;24.80;50.70;;;;;;5037650;28;20033;-75
2022/05/06 09:49:03;;;;;;;12.73;7.20;;;25.50;48.00;;;;;;5038391;28;20025;-75
2022/05/06 09:51:34;;;;;;;9.40;5.75;;;26.60;45.80;;;;;;5042986;28;20028;-75
2022/05/06 09:54:02;;;;;;;8.38;6.13;;;27.30;44.50;;;;;;5044192;28;20123;-75
2022/05/06 09:56:28;;;;;;;11.73;6.47;;;27.80;42.60;;;;;;5041278;28;20104;-75
2022/05/06 09:58:56;;;;;;;9.88;6.15;;;28.30;41.60;;;;;;5058047;28;20055;-74
2022/05/06 10:01:22;;;;;;;9.00;6.07;;;28.80;40.60;;;;;;5048409;28;20061;-75
2022/05/06 10:03:48;;;;;;;9.43;5.63;;;29.30;40.00;;;;;;5045843;28;20021;-75
2022/05/06 10:06:14;;;;;;;13.27;6.10;;;28.30;41.20;;;;;;5057437;28;20021;-74
2022/05/06 10:08:49;;;;;;;9.77;5.78;;;28.70;40.20;;;;;;5047458;28;20790;-74
2022/05/06 10:11:21;;;;;;;8.13;5.47;;;28.30;39.60;;;;;;5044303;28;20574;-76
2022/05/06 10:13:49;;;;;;;9.73;6.07;;;28.50;40.70;;;;;;5054973;28;20080;-77
2022/05/06 10:16:15;;;;;;;10.60;5.63;;;28.60;39.20;;;;;;5036469;28;20452;-77
2022/05/06 10:18:44;;;;;;;10.25;6.03;;;28.70;39.60;;;;;;5037859;28;20112;-77
2022/05/06 10:21:14;;;;;;;10.70;6.57;;;28.10;40.10;;;;;;5042958;28;20022;-77
2022/05/06 10:23:55;;;;;;;10.73;5.82;;;27.90;41.30;;;;;;5057316;28;20387;-77
2022/05/06 10:26:33;;;;;;;8.90;6.32;;;27.10;41.40;;;;;;5057268;28;20507;-77
2022/05/06 10:34:29;;;;;;;11.00;5.32;;;25.30;46.00;;;;;;5037550;28;20047;-75
2022/05/06 10:37:01;;;;;;;9.77;5.90;;;25.10;47.00;;;;;;5037313;28;20055;-75
2022/05/06 10:39:33;;;;;;;9.52;5.50;;;24.90;48.10;;;;;;5036075;28;20488;-75
2022/05/06 10:42:01;;;;;;;11.50;5.68;;;24.50;47.90;;;;;;5037338;28;20566;-75
2022/05/06 10:44:50;;;;;;;8.63;5.15;;;24.30;48.70;;;;;;5042507;28;20052;-75
2022/05/06 10:47:15;;;;;;;7.90;5.22;;;24.20;48.90;;;;;;5057025;28;20029;-75
2022/05/06 10:49:46;;;;;;;7.85;5.15;;;24.10;49.30;;;;;;5057037;28;20031;-75
2022/05/06 10:52:22;;;;;;;8.90;4.90;;;24.00;48.40;;;;;;5049279;28;20162;-75
2022/05/06 10:54:55;;;;;;;9.48;4.85;;;23.80;49.40;;;;;;5054718;28;20463;-74
2022/05/06 10:57:25;;;;;;;6.80;4.13;;;23.90;49.40;;;;;;5037166;28;20137;-75
2022/05/06 10:59:52;;;;;;;5.88;4.03;;;24.00;48.60;;;;;;5036864;28;20049;-75
2022/05/06 11:02:22;;;;;;;11.02;4.78;;;24.10;49.00;;;;;;5036477;28;20038;-74
2022/05/06 11:05:00;;;;;;;8.80;4.43;;;24.00;49.30;;;;;;5053033;28;20020;-75
2022/05/06 11:07:27;;;;;;;9.02;5.28;;;24.00;48.30;;;;;;5049329;28;20045;-75
2022/05/06 11:09:53;;;;;;;11.43;5.95;;;24.10;49.60;;;;;;5036760;28;20025;-75
2022/05/06 11:12:40;;;;;;;9.00;5.25;;;23.90;49.80;;;;;;5051737;28;20452;-75
2022/05/06 11:15:13;;;;;;;7.28;4.53;;;23.80;50.80;;;;;;5041970;28;20038;-75
2022/05/06 11:17:39;;;;;;;7.25;5.10;;;23.80;50.40;;;;;;5036886;28;20055;-75
2022/05/06 11:20:18;;;;;;;10.63;4.57;;;24.00;50.70;;;;;;5036528;28;20403;-75
2022/05/06 11:23:21;;;;;;;8.80;4.55;;;24.10;49.60;;;;;;5036401;28;20040;-75
2022/05/06 11:25:50;;;;;;;6.90;4.03;;;24.10;47.70;;;;;;5035275;28;20033;-75
2022/05/06 11:28:20;;;;;;;9.00;4.10;;;24.30;49.50;;;;;;5036073;28;20474;-75
2022/05/06 11:30:48;;;;;;;7.97;4.07;;;24.30;49.00;;;;;;5036498;28;20029;-75
2022/05/06 11:33:31;;;;;;;7.93;3.97;;;24.20;48.00;;;;;;5036387;28;20029;-75
2022/05/06 11:36:02;;;;;;;9.98;4.45;;;24.20;49.00;;;;;;5036206;28;20039;-75
2022/05/06 11:38:48;;;;;;;10.57;4.32;;;24.20;48.60;;;;;;5035927;28;20030;-75
2022/05/06 11:41:16;;;;;;;6.85;4.47;;;24.00;48.80;;;;;;5035621;28;20059;-75
2022/05/06 11:43:43;;;;;;;8.30;4.10;;;23.90;48.70;;;;;;5035772;28;20044;-75
2022/05/06 11:49:06;;;;;;;8.20;3.92;;;23.80;49.50;;;;;;5036221;28;20063;-74
2022/05/06 11:51:48;;;;;;;6.63;3.70;;;24.10;48.90;;;;;;5039977;28;20025;-75
2022/05/06 11:54:17;;;;;;;7.47;4.03;;;24.30;47.70;;;;;;5050926;28;20038;-75
2022/05/06 11:56:44;;;;;;;5.88;3.47;;;24.40;47.90;;;;;;5035960;28;20093;-75
2022/05/06 11:59:10;;;;;;;6.93;3.50;;;24.40;48.50;;;;;;5035050;28;20025;-75
2022/05/06 12:01:38;;;;;;;10.82;3.38;;;24.20;47.60;;;;;;5035387;28;20033;-76
2022/05/06 12:04:06;;;;;;;6.53;3.25;;;24.00;48.10;;;;;;5046106;28;20040;-75
2022/05/06 12:06:33;;;;;;;6.47;3.92;;;23.90;48.00;;;;;;5050211;28;20041;-75
2022/05/06 12:09:16;;;;;;;10.00;3.80;;;23.90;47.80;;;;;;5035559;28;20511;-75
2022/05/06 12:11:43;;;;;;;6.13;3.58;;;24.20;48.30;;;;;;5046032;28;20031;-75
2022/05/06 12:14:17;;;;;;;5.75;3.88;;;24.30;47.20;;;;;;5041779;28;20033;-75
2022/05/06 12:16:56;;;;;;;9.10;4.50;;;24.10;47.10;;;;;;5035094;28;20372;-76
2022/05/06 12:19:41;;;;;;;5.60;2.97;;;23.90;48.00;;;;;;5035379;28;20498;-76
2022/05/06 12:22:13;;;;;;;8.35;3.22;;;24.00;47.70;;;;;;5035555;28;20506;-75
2022/05/06 12:24:46;;;;;;;4.60;3.38;;;24.30;47.90;;;;;;5035389;28;20025;-76
2022/05/06 12:27:22;;;;;;;9.38;3.42;;;24.40;46.60;;;;;;5035723;28;20108;-75
2022/05/06 12:29:48;;;;;;;5.72;3.60;;;24.50;47.00;;;;;;5035454;28;20022;-75
2022/05/06 12:32:13;;;;;;;11.75;4.57;;;24.50;47.30;;;;;;5035327;28;20044;-75
2022/05/06 12:34:39;;;;;;;7.18;4.07;;;24.30;47.40;;;;;;5033609;28;20056;-75
2022/05/06 12:37:23;;;;;;;8.18;3.67;;;24.10;47.90;;;;;;5034738;28;20038;-75
2022/05/06 12:39:48;;;;;;;6.90;3.67;;;23.90;47.70;;;;;;5035312;28;20022;-75
2022/05/06 12:42:17;;;;;;;6.20;3.38;;;24.10;48.10;;;;;;5035034;28;20491;-75
2022/05/06 12:44:43;;;;;;;8.32;3.60;;;24.30;47.40;;;;;;5054536;28;20108;-75
2022/05/06 12:50:02;;;;;;;9.18;4.05;;;24.20;48.00;;;;;;5035383;28;20072;-75
2022/05/06 12:52:27;;;;;;;7.75;3.22;;;24.30;48.30;;;;;;5046395;28;20091;-75
2022/05/06 12:54:53;;;;;;;7.50;3.63;;;24.30;48.80;;;;;;5054574;28;20017;-75
2022/05/06 12:57:19;;;;;;;8.80;3.90;;;24.20;48.00;;;;;;5043301;28;20033;-75
2022/05/06 12:59:44;;;;;;;7.70;3.90;;;24.00;47.50;;;;;;5034853;28;20025;-75
2022/05/06 13:02:10;;;;;;;6.13;3.65;;;23.90;47.70;;;;;;5035074;28;20472;-75
2022/05/06 13:04:36;;;;;;;8.40;4.03;;;23.90;47.30;;;;;;5049646;28;20028;-75
2022/05/06 13:07:02;;;;;;;6.88;3.78;;;24.10;47.80;;;;;;5053632;28;20025;-75
2022/05/06 13:09:29;;;;;;;6.78;4.35;;;24.20;48.80;;;;;;5049504;28;20077;-75
2022/05/06 13:11:55;;;;;;;6.40;4.22;;;24.10;48.00;;;;;;5044977;28;20052;-75
2022/05/06 13:14:21;;;;;;;6.82;4.45;;;24.20;47.00;;;;;;5052468;28;21018;-75
2022/05/06 13:16:48;;;;;;;8.82;4.00;;;24.30;46.50;;;;;;5039028;28;20025;-75
2022/05/06 13:19:13;;;;;;;7.00;4.38;;;24.60;47.60;;;;;;5038957;28;20018;-75
2022/05/06 13:21:39;;;;;;;8.35;4.10;;;24.50;47.20;;;;;;5037499;28;20507;-75
2022/05/06 13:24:07;;;;;;;8.63;4.57;;;24.70;47.20;;;;;;5050152;28;20702;-75
2022/05/06 13:26:35;;;;;;;7.57;4.80;;;24.90;46.20;;;;;;5058738;28;20025;-75
2022/05/06 13:29:02;;;;;;;8.55;4.68;;;24.90;45.60;;;;;;5058716;28;20029;-75